sensor_id;sensor_type;location;lat;lon;timestamp;P1;durP1;ratioP1;P2;durP2;ratioP2
10343;SDS011;5217;43.960;10.954;2023-08-30T00:00:07;3.70;;;1.17;;
10343;SDS011;5217;43.960;10.954;2023-08-30T00:02:38;3.22;;;1.10;;
10343;SDS011;5217;43.960;10.954;2023-08-30T00:05:07;3.15;;;1.13;;
10343;SDS011;5217;43.960;10.954;2023-08-30T00:07:37;2.22;;;1.00;;
10343;SDS011;5217;43.960;10.954;2023-08-30T00:10:06;4.55;;;1.17;;
10343;SDS011;5217;43.960;10.954;2023-08-30T00:12:37;5.60;;;1.30;;
10343;SDS011;5217;43.960;10.954;2023-08-30T00:15:06;2.10;;;1.13;;
10343;SDS011;5217;43.960;10.954;2023-08-30T00:17:35;2.15;;;1.10;;
10343;SDS011;5217;43.960;10.954;2023-08-30T00:20:04;2.35;;;1.00;;
10343;SDS011;5217;43.960;10.954;2023-08-30T00:22:35;1.80;;;1.08;;
10343;SDS011;5217;43.960;10.954;2023-08-30T00:25:05;4.13;;;1.13;;
10343;SDS011;5217;43.960;10.954;2023-08-30T00:27:33;2.85;;;1.10;;
10343;SDS011;5217;43.960;10.954;2023-08-30T00:30:02;1.20;;;1.10;;
10343;SDS011;5217;43.960;10.954;2023-08-30T00:32:31;1.63;;;0.95;;
10343;SDS011;5217;43.960;10.954;2023-08-30T00:34:59;1.38;;;1.00;;
10343;SDS011;5217;43.960;10.954;2023-08-30T00:37:28;0.95;;;0.93;;
10343;SDS011;5217;43.960;10.954;2023-08-30T00:39:56;2.60;;;1.13;;
10343;SDS011;5217;43.960;10.954;2023-08-30T00:42:27;1.42;;;1.10;;
10343;SDS011;5217;43.960;10.954;2023-08-30T00:44:56;1.52;;;1.10;;
10343;SDS011;5217;43.960;10.954;2023-08-30T00:47:24;2.88;;;1.33;;
10343;SDS011;5217;43.960;10.954;2023-08-30T00:49:52;3.13;;;1.10;;
10343;SDS011;5217;43.960;10.954;2023-08-30T00:52:21;2.22;;;0.95;;
10343;SDS011;5217;43.960;10.954;2023-08-30T00:54:49;2.10;;;1.00;;
10343;SDS011;5217;43.960;10.954;2023-08-30T00:57:18;2.00;;;1.08;;
10343;SDS011;5217;43.960;10.954;2023-08-30T00:59:48;3.20;;;0.90;;
10343;SDS011;5217;43.960;10.954;2023-08-30T01:02:18;1.90;;;1.05;;
10343;SDS011;5217;43.960;10.954;2023-08-30T01:04:46;2.47;;;1.20;;
10343;SDS011;5217;43.960;10.954;2023-08-30T01:07:15;1.38;;;1.00;;
10343;SDS011;5217;43.960;10.954;2023-08-30T01:09:45;2.05;;;1.10;;
10343;SDS011;5217;43.960;10.954;2023-08-30T01:12:16;1.08;;;0.80;;
10343;SDS011;5217;43.960;10.954;2023-08-30T01:14:52;1.35;;;1.00;;
10343;SDS011;5217;43.960;10.954;2023-08-30T01:17:26;2.03;;;1.10;;
10343;SDS011;5217;43.960;10.954;2023-08-30T01:19:58;1.92;;;0.90;;
10343;SDS011;5217;43.960;10.954;2023-08-30T01:22:32;3.85;;;1.00;;
10343;SDS011;5217;43.960;10.954;2023-08-30T01:25:14;7.13;;;1.10;;
10343;SDS011;5217;43.960;10.954;2023-08-30T01:27:49;3.42;;;0.90;;
10343;SDS011;5217;43.960;10.954;2023-08-30T01:30:20;1.10;;;1.00;;
10343;SDS011;5217;43.960;10.954;2023-08-30T01:32:50;2.03;;;0.90;;
10343;SDS011;5217;43.960;10.954;2023-08-30T01:35:18;1.60;;;0.88;;
10343;SDS011;5217;43.960;10.954;2023-08-30T01:37:48;1.65;;;1.10;;
10343;SDS011;5217;43.960;10.954;2023-08-30T01:40:20;1.58;;;1.10;;
10343;SDS011;5217;43.960;10.954;2023-08-30T01:42:50;2.67;;;1.10;;
10343;SDS011;5217;43.960;10.954;2023-08-30T01:45:19;1.02;;;0.90;;
10343;SDS011;5217;43.960;10.954;2023-08-30T01:47:49;3.28;;;1.10;;
10343;SDS011;5217;43.960;10.954;2023-08-30T01:50:19;3.05;;;1.00;;
10343;SDS011;5217;43.960;10.954;2023-08-30T01:52:48;3.42;;;1.00;;
10343;SDS011;5217;43.960;10.954;2023-08-30T01:55:17;1.73;;;1.02;;
10343;SDS011;5217;43.960;10.954;2023-08-30T01:57:49;0.85;;;0.80;;
10343;SDS011;5217;43.960;10.954;2023-08-30T02:00:17;1.13;;;0.70;;
10343;SDS011;5217;43.960;10.954;2023-08-30T02:02:47;1.65;;;1.10;;
10343;SDS011;5217;43.960;10.954;2023-08-30T02:05:16;2.85;;;1.02;;
10343;SDS011;5217;43.960;10.954;2023-08-30T02:07:47;0.93;;;0.90;;
10343;SDS011;5217;43.960;10.954;2023-08-30T02:10:23;2.70;;;0.90;;
10343;SDS011;5217;43.960;10.954;2023-08-30T02:12:55;1.48;;;0.90;;
10343;SDS011;5217;43.960;10.954;2023-08-30T02:15:26;3.65;;;1.10;;
10343;SDS011;5217;43.960;10.954;2023-08-30T02:17:57;1.85;;;1.15;;
10343;SDS011;5217;43.960;10.954;2023-08-30T02:20:27;1.10;;;1.00;;
10343;SDS011;5217;43.960;10.954;2023-08-30T02:22:57;2.53;;;1.00;;
10343;SDS011;5217;43.960;10.954;2023-08-30T02:25:39;0.80;;;0.80;;
10343;SDS011;5217;43.960;10.954;2023-08-30T02:28:09;1.88;;;0.80;;
10343;SDS011;5217;43.960;10.954;2023-08-30T02:30:37;2.70;;;0.90;;
10343;SDS011;5217;43.960;10.954;2023-08-30T02:33:06;1.55;;;1.00;;
10343;SDS011;5217;43.960;10.954;2023-08-30T02:35:34;2.60;;;1.02;;
10343;SDS011;5217;43.960;10.954;2023-08-30T02:38:03;3.10;;;0.90;;
10343;SDS011;5217;43.960;10.954;2023-08-30T02:40:32;3.20;;;1.00;;
10343;SDS011;5217;43.960;10.954;2023-08-30T02:43:00;1.08;;;0.90;;
10343;SDS011;5217;43.960;10.954;2023-08-30T02:45:30;2.58;;;0.93;;
10343;SDS011;5217;43.960;10.954;2023-08-30T02:47:59;0.85;;;0.85;;
10343;SDS011;5217;43.960;10.954;2023-08-30T02:50:27;2.08;;;1.10;;
10343;SDS011;5217;43.960;10.954;2023-08-30T02:52:56;1.27;;;0.93;;
10343;SDS011;5217;43.960;10.954;2023-08-30T02:55:24;4.30;;;0.95;;
10343;SDS011;5217;43.960;10.954;2023-08-30T02:57:52;1.83;;;1.05;;
10343;SDS011;5217;43.960;10.954;2023-08-30T03:00:20;1.75;;;1.00;;
10343;SDS011;5217;43.960;10.954;2023-08-30T03:02:50;2.00;;;0.93;;
10343;SDS011;5217;43.960;10.954;2023-08-30T03:05:19;1.52;;;0.90;;
10343;SDS011;5217;43.960;10.954;2023-08-30T03:07:47;2.92;;;1.00;;
10343;SDS011;5217;43.960;10.954;2023-08-30T03:10:17;0.95;;;0.88;;
10343;SDS011;5217;43.960;10.954;2023-08-30T03:12:46;1.60;;;1.00;;
10343;SDS011;5217;43.960;10.954;2023-08-30T03:15:14;3.97;;;1.00;;
10343;SDS011;5217;43.960;10.954;2023-08-30T03:17:43;2.03;;;0.90;;
10343;SDS011;5217;43.960;10.954;2023-08-30T03:20:13;2.15;;;1.10;;
10343;SDS011;5217;43.960;10.954;2023-08-30T03:22:42;1.40;;;1.00;;
10343;SDS011;5217;43.960;10.954;2023-08-30T03:25:10;1.30;;;1.00;;
10343;SDS011;5217;43.960;10.954;2023-08-30T03:27:39;1.63;;;1.13;;
10343;SDS011;5217;43.960;10.954;2023-08-30T03:30:07;1.08;;;0.98;;
10343;SDS011;5217;43.960;10.954;2023-08-30T03:32:36;1.20;;;1.05;;
10343;SDS011;5217;43.960;10.954;2023-08-30T03:35:05;4.05;;;1.30;;
10343;SDS011;5217;43.960;10.954;2023-08-30T03:37:36;1.15;;;0.95;;
10343;SDS011;5217;43.960;10.954;2023-08-30T03:40:05;3.17;;;1.10;;
10343;SDS011;5217;43.960;10.954;2023-08-30T03:42:38;0.85;;;0.85;;
10343;SDS011;5217;43.960;10.954;2023-08-30T03:45:07;1.60;;;0.93;;
10343;SDS011;5217;43.960;10.954;2023-08-30T03:47:36;2.13;;;1.00;;
10343;SDS011;5217;43.960;10.954;2023-08-30T03:50:06;3.45;;;0.80;;
10343;SDS011;5217;43.960;10.954;2023-08-30T03:52:36;4.32;;;1.15;;
10343;SDS011;5217;43.960;10.954;2023-08-30T03:55:05;1.52;;;0.95;;
10343;SDS011;5217;43.960;10.954;2023-08-30T03:57:34;1.30;;;1.00;;
10343;SDS011;5217;43.960;10.954;2023-08-30T04:00:03;2.35;;;1.00;;
10343;SDS011;5217;43.960;10.954;2023-08-30T04:02:33;2.50;;;1.13;;
10343;SDS011;5217;43.960;10.954;2023-08-30T04:05:01;1.17;;;1.08;;
10343;SDS011;5217;43.960;10.954;2023-08-30T04:07:30;1.27;;;0.90;;
10343;SDS011;5217;43.960;10.954;2023-08-30T04:10:00;3.47;;;1.00;;
10343;SDS011;5217;43.960;10.954;2023-08-30T04:12:32;0.98;;;0.90;;
10343;SDS011;5217;43.960;10.954;2023-08-30T04:15:01;2.30;;;1.08;;
10343;SDS011;5217;43.960;10.954;2023-08-30T04:17:30;2.00;;;0.80;;
10343;SDS011;5217;43.960;10.954;2023-08-30T04:19:58;5.22;;;1.13;;
10343;SDS011;5217;43.960;10.954;2023-08-30T04:22:30;1.60;;;1.05;;
10343;SDS011;5217;43.960;10.954;2023-08-30T04:25:02;1.20;;;1.08;;
10343;SDS011;5217;43.960;10.954;2023-08-30T04:27:33;3.55;;;1.20;;
10343;SDS011;5217;43.960;10.954;2023-08-30T04:30:02;2.08;;;1.02;;
10343;SDS011;5217;43.960;10.954;2023-08-30T04:32:31;1.30;;;1.20;;
10343;SDS011;5217;43.960;10.954;2023-08-30T04:34:59;2.13;;;0.90;;
10343;SDS011;5217;43.960;10.954;2023-08-30T04:37:29;2.15;;;1.00;;
10343;SDS011;5217;43.960;10.954;2023-08-30T04:39:58;2.17;;;0.90;;
10343;SDS011;5217;43.960;10.954;2023-08-30T04:42:28;2.63;;;1.23;;
10343;SDS011;5217;43.960;10.954;2023-08-30T04:44:57;2.97;;;1.00;;
10343;SDS011;5217;43.960;10.954;2023-08-30T04:47:27;1.70;;;1.08;;
10343;SDS011;5217;43.960;10.954;2023-08-30T04:49:56;1.67;;;0.90;;
10343;SDS011;5217;43.960;10.954;2023-08-30T04:52:24;4.40;;;1.20;;
10343;SDS011;5217;43.960;10.954;2023-08-30T04:54:53;3.78;;;1.10;;
10343;SDS011;5217;43.960;10.954;2023-08-30T04:57:22;2.53;;;0.90;;
10343;SDS011;5217;43.960;10.954;2023-08-30T04:59:51;1.52;;;1.05;;
10343;SDS011;5217;43.960;10.954;2023-08-30T05:02:20;1.73;;;0.93;;
10343;SDS011;5217;43.960;10.954;2023-08-30T05:04:48;4.70;;;1.10;;
10343;SDS011;5217;43.960;10.954;2023-08-30T05:07:17;3.03;;;1.00;;
10343;SDS011;5217;43.960;10.954;2023-08-30T05:09:45;1.45;;;1.20;;
10343;SDS011;5217;43.960;10.954;2023-08-30T05:12:13;2.97;;;1.10;;
10343;SDS011;5217;43.960;10.954;2023-08-30T05:14:42;2.30;;;0.90;;
10343;SDS011;5217;43.960;10.954;2023-08-30T05:17:11;1.42;;;1.00;;
10343;SDS011;5217;43.960;10.954;2023-08-30T05:19:40;1.55;;;1.10;;
10343;SDS011;5217;43.960;10.954;2023-08-30T05:22:08;1.23;;;0.82;;
10343;SDS011;5217;43.960;10.954;2023-08-30T05:24:36;2.60;;;1.00;;
10343;SDS011;5217;43.960;10.954;2023-08-30T05:27:05;1.10;;;0.88;;
10343;SDS011;5217;43.960;10.954;2023-08-30T05:29:34;1.17;;;0.73;;
10343;SDS011;5217;43.960;10.954;2023-08-30T05:32:03;1.40;;;1.00;;
10343;SDS011;5217;43.960;10.954;2023-08-30T05:34:36;3.03;;;1.15;;
10343;SDS011;5217;43.960;10.954;2023-08-30T05:37:04;1.65;;;1.00;;
10343;SDS011;5217;43.960;10.954;2023-08-30T05:39:33;0.90;;;0.90;;
10343;SDS011;5217;43.960;10.954;2023-08-30T05:42:02;1.33;;;1.00;;
10343;SDS011;5217;43.960;10.954;2023-08-30T05:44:31;1.05;;;0.88;;
10343;SDS011;5217;43.960;10.954;2023-08-30T05:47:00;2.25;;;1.10;;
10343;SDS011;5217;43.960;10.954;2023-08-30T05:49:28;1.15;;;1.00;;
10343;SDS011;5217;43.960;10.954;2023-08-30T05:51:58;2.50;;;1.10;;
10343;SDS011;5217;43.960;10.954;2023-08-30T05:54:26;1.67;;;1.10;;
10343;SDS011;5217;43.960;10.954;2023-08-30T05:56:57;2.42;;;1.02;;
10343;SDS011;5217;43.960;10.954;2023-08-30T05:59:26;2.00;;;1.20;;
10343;SDS011;5217;43.960;10.954;2023-08-30T06:01:54;1.85;;;1.05;;
10343;SDS011;5217;43.960;10.954;2023-08-30T06:04:23;2.42;;;1.10;;
10343;SDS011;5217;43.960;10.954;2023-08-30T06:06:51;2.08;;;1.00;;
10343;SDS011;5217;43.960;10.954;2023-08-30T06:09:21;3.60;;;1.00;;
10343;SDS011;5217;43.960;10.954;2023-08-30T06:11:50;2.25;;;1.00;;
10343;SDS011;5217;43.960;10.954;2023-08-30T06:14:18;1.45;;;1.00;;
10343;SDS011;5217;43.960;10.954;2023-08-30T06:16:47;1.80;;;1.10;;
10343;SDS011;5217;43.960;10.954;2023-08-30T06:19:15;0.80;;;0.80;;
10343;SDS011;5217;43.960;10.954;2023-08-30T06:21:44;2.40;;;1.90;;
10343;SDS011;5217;43.960;10.954;2023-08-30T06:24:12;6.40;;;5.80;;
10343;SDS011;5217;43.960;10.954;2023-08-30T06:26:42;5.28;;;4.78;;
10343;SDS011;5217;43.960;10.954;2023-08-30T06:29:10;3.92;;;3.03;;
10343;SDS011;5217;43.960;10.954;2023-08-30T06:31:39;2.17;;;1.90;;
10343;SDS011;5217;43.960;10.954;2023-08-30T06:34:08;1.45;;;1.35;;
10343;SDS011;5217;43.960;10.954;2023-08-30T06:36:37;2.15;;;1.23;;
10343;SDS011;5217;43.960;10.954;2023-08-30T06:39:05;1.58;;;1.05;;
10343;SDS011;5217;43.960;10.954;2023-08-30T06:41:34;1.02;;;0.93;;
10343;SDS011;5217;43.960;10.954;2023-08-30T06:44:07;1.65;;;1.00;;
10343;SDS011;5217;43.960;10.954;2023-08-30T06:46:37;1.77;;;1.20;;
10343;SDS011;5217;43.960;10.954;2023-08-30T06:49:06;3.58;;;1.23;;
10343;SDS011;5217;43.960;10.954;2023-08-30T06:51:35;1.70;;;1.27;;
10343;SDS011;5217;43.960;10.954;2023-08-30T06:54:04;2.08;;;1.10;;
10343;SDS011;5217;43.960;10.954;2023-08-30T06:56:32;2.67;;;1.35;;
10343;SDS011;5217;43.960;10.954;2023-08-30T06:59:01;3.70;;;1.10;;
10343;SDS011;5217;43.960;10.954;2023-08-30T07:01:31;1.90;;;1.27;;
10343;SDS011;5217;43.960;10.954;2023-08-30T07:04:02;3.22;;;1.48;;
10343;SDS011;5217;43.960;10.954;2023-08-30T07:06:30;3.00;;;1.40;;
10343;SDS011;5217;43.960;10.954;2023-08-30T07:08:59;1.98;;;1.20;;
10343;SDS011;5217;43.960;10.954;2023-08-30T07:11:27;2.45;;;1.20;;
10343;SDS011;5217;43.960;10.954;2023-08-30T07:14:00;1.40;;;1.20;;
10343;SDS011;5217;43.960;10.954;2023-08-30T07:16:28;2.22;;;1.30;;
10343;SDS011;5217;43.960;10.954;2023-08-30T07:18:58;2.00;;;1.38;;
10343;SDS011;5217;43.960;10.954;2023-08-30T07:21:28;1.88;;;1.50;;
10343;SDS011;5217;43.960;10.954;2023-08-30T07:23:56;2.75;;;1.50;;
10343;SDS011;5217;43.960;10.954;2023-08-30T07:26:25;1.40;;;1.20;;
10343;SDS011;5217;43.960;10.954;2023-08-30T07:28:53;3.00;;;1.38;;
10343;SDS011;5217;43.960;10.954;2023-08-30T07:31:21;2.45;;;1.30;;
10343;SDS011;5217;43.960;10.954;2023-08-30T07:33:51;3.00;;;1.30;;
10343;SDS011;5217;43.960;10.954;2023-08-30T07:36:20;2.33;;;1.45;;
10343;SDS011;5217;43.960;10.954;2023-08-30T07:39:03;3.08;;;1.48;;
10343;SDS011;5217;43.960;10.954;2023-08-30T07:41:33;2.08;;;1.30;;
10343;SDS011;5217;43.960;10.954;2023-08-30T07:44:02;1.67;;;1.30;;
10343;SDS011;5217;43.960;10.954;2023-08-30T07:46:30;1.35;;;1.17;;
10343;SDS011;5217;43.960;10.954;2023-08-30T07:49:00;2.45;;;1.65;;
10343;SDS011;5217;43.960;10.954;2023-08-30T07:51:29;2.58;;;1.40;;
10343;SDS011;5217;43.960;10.954;2023-08-30T07:53:57;3.15;;;1.52;;
10343;SDS011;5217;43.960;10.954;2023-08-30T07:56:26;1.73;;;1.40;;
10343;SDS011;5217;43.960;10.954;2023-08-30T07:58:56;3.08;;;1.90;;
10343;SDS011;5217;43.960;10.954;2023-08-30T08:01:24;5.43;;;1.70;;
10343;SDS011;5217;43.960;10.954;2023-08-30T08:03:53;2.78;;;1.75;;
10343;SDS011;5217;43.960;10.954;2023-08-30T08:06:34;7.53;;;1.92;;
10343;SDS011;5217;43.960;10.954;2023-08-30T08:09:03;1.77;;;1.40;;
10343;SDS011;5217;43.960;10.954;2023-08-30T08:11:34;3.72;;;1.80;;
10343;SDS011;5217;43.960;10.954;2023-08-30T08:14:02;3.00;;;1.80;;
10343;SDS011;5217;43.960;10.954;2023-08-30T08:16:31;3.47;;;2.25;;
10343;SDS011;5217;43.960;10.954;2023-08-30T08:18:59;2.15;;;1.95;;
10343;SDS011;5217;43.960;10.954;2023-08-30T08:21:28;4.03;;;2.67;;
10343;SDS011;5217;43.960;10.954;2023-08-30T08:23:58;4.43;;;2.30;;
10343;SDS011;5217;43.960;10.954;2023-08-30T08:26:26;2.83;;;2.08;;
10343;SDS011;5217;43.960;10.954;2023-08-30T08:28:55;4.95;;;2.05;;
10343;SDS011;5217;43.960;10.954;2023-08-30T08:31:24;2.30;;;1.80;;
10343;SDS011;5217;43.960;10.954;2023-08-30T08:34:05;5.28;;;1.83;;
10343;SDS011;5217;43.960;10.954;2023-08-30T08:36:35;3.60;;;2.10;;
10343;SDS011;5217;43.960;10.954;2023-08-30T08:39:05;2.75;;;1.70;;
10343;SDS011;5217;43.960;10.954;2023-08-30T08:41:35;2.65;;;1.67;;
10343;SDS011;5217;43.960;10.954;2023-08-30T08:44:06;2.15;;;1.60;;
10343;SDS011;5217;43.960;10.954;2023-08-30T08:46:36;2.25;;;1.63;;
10343;SDS011;5217;43.960;10.954;2023-08-30T08:49:07;2.08;;;1.50;;
10343;SDS011;5217;43.960;10.954;2023-08-30T08:51:40;3.35;;;1.45;;
10343;SDS011;5217;43.960;10.954;2023-08-30T08:54:10;2.97;;;1.60;;
10343;SDS011;5217;43.960;10.954;2023-08-30T08:56:39;2.83;;;1.30;;
10343;SDS011;5217;43.960;10.954;2023-08-30T08:59:08;2.47;;;1.48;;
10343;SDS011;5217;43.960;10.954;2023-08-30T09:01:38;1.60;;;1.30;;
10343;SDS011;5217;43.960;10.954;2023-08-30T09:04:07;2.35;;;1.35;;
10343;SDS011;5217;43.960;10.954;2023-08-30T09:06:38;3.85;;;1.60;;
10343;SDS011;5217;43.960;10.954;2023-08-30T09:09:07;2.88;;;1.80;;
10343;SDS011;5217;43.960;10.954;2023-08-30T09:11:37;3.33;;;1.70;;
10343;SDS011;5217;43.960;10.954;2023-08-30T09:14:09;2.95;;;1.63;;
10343;SDS011;5217;43.960;10.954;2023-08-30T09:16:37;2.85;;;1.60;;
10343;SDS011;5217;43.960;10.954;2023-08-30T09:19:05;2.22;;;1.70;;
10343;SDS011;5217;43.960;10.954;2023-08-30T09:21:36;3.30;;;1.50;;
10343;SDS011;5217;43.960;10.954;2023-08-30T09:24:05;2.38;;;1.40;;
10343;SDS011;5217;43.960;10.954;2023-08-30T09:26:36;1.30;;;1.20;;
10343;SDS011;5217;43.960;10.954;2023-08-30T09:29:06;1.88;;;1.23;;
10343;SDS011;5217;43.960;10.954;2023-08-30T09:31:35;1.30;;;1.15;;
10343;SDS011;5217;43.960;10.954;2023-08-30T09:34:04;1.70;;;1.10;;
10343;SDS011;5217;43.960;10.954;2023-08-30T09:36:33;1.40;;;1.30;;
10343;SDS011;5217;43.960;10.954;2023-08-30T09:39:05;1.70;;;1.25;;
10343;SDS011;5217;43.960;10.954;2023-08-30T09:41:37;1.30;;;1.20;;
10343;SDS011;5217;43.960;10.954;2023-08-30T09:44:09;1.27;;;1.10;;
10343;SDS011;5217;43.960;10.954;2023-08-30T09:46:41;1.50;;;1.17;;
10343;SDS011;5217;43.960;10.954;2023-08-30T09:49:18;1.63;;;1.00;;
10343;SDS011;5217;43.960;10.954;2023-08-30T09:51:48;1.67;;;1.00;;
10343;SDS011;5217;43.960;10.954;2023-08-30T09:54:38;1.73;;;1.33;;
10343;SDS011;5217;43.960;10.954;2023-08-30T09:57:09;2.60;;;1.20;;
10343;SDS011;5217;43.960;10.954;2023-08-30T09:59:38;1.20;;;1.10;;
10343;SDS011;5217;43.960;10.954;2023-08-30T10:02:07;2.17;;;1.35;;
10343;SDS011;5217;43.960;10.954;2023-08-30T10:04:38;1.60;;;1.17;;
10343;SDS011;5217;43.960;10.954;2023-08-30T10:07:07;1.40;;;1.10;;
10343;SDS011;5217;43.960;10.954;2023-08-30T10:09:38;2.15;;;1.40;;
10343;SDS011;5217;43.960;10.954;2023-08-30T10:12:28;1.15;;;1.00;;
10343;SDS011;5217;43.960;10.954;2023-08-30T10:14:59;2.55;;;1.23;;
10343;SDS011;5217;43.960;10.954;2023-08-30T10:17:30;2.00;;;1.30;;
10343;SDS011;5217;43.960;10.954;2023-08-30T10:20:03;2.33;;;1.15;;
10343;SDS011;5217;43.960;10.954;2023-08-30T10:22:34;1.17;;;1.02;;
10343;SDS011;5217;43.960;10.954;2023-08-30T10:25:06;2.38;;;1.30;;
10343;SDS011;5217;43.960;10.954;2023-08-30T10:27:40;1.40;;;1.30;;
10343;SDS011;5217;43.960;10.954;2023-08-30T10:30:11;1.48;;;1.15;;
10343;SDS011;5217;43.960;10.954;2023-08-30T10:32:43;1.75;;;1.30;;
10343;SDS011;5217;43.960;10.954;2023-08-30T10:35:12;2.10;;;1.50;;
10343;SDS011;5217;43.960;10.954;2023-08-30T10:37:42;1.30;;;1.20;;
10343;SDS011;5217;43.960;10.954;2023-08-30T10:40:21;2.03;;;1.33;;
10343;SDS011;5217;43.960;10.954;2023-08-30T10:43:00;1.98;;;1.20;;
10343;SDS011;5217;43.960;10.954;2023-08-30T10:45:30;1.27;;;1.17;;
10343;SDS011;5217;43.960;10.954;2023-08-30T10:47:59;1.88;;;1.40;;
10343;SDS011;5217;43.960;10.954;2023-08-30T10:50:28;2.80;;;1.52;;
10343;SDS011;5217;43.960;10.954;2023-08-30T10:52:57;2.45;;;1.50;;
10343;SDS011;5217;43.960;10.954;2023-08-30T10:55:26;2.05;;;1.42;;
10343;SDS011;5217;43.960;10.954;2023-08-30T10:57:58;1.77;;;1.38;;
10343;SDS011;5217;43.960;10.954;2023-08-30T11:00:31;1.13;;;1.02;;
10343;SDS011;5217;43.960;10.954;2023-08-30T11:03:00;1.92;;;1.15;;
10343;SDS011;5217;43.960;10.954;2023-08-30T11:05:29;1.63;;;1.30;;
10343;SDS011;5217;43.960;10.954;2023-08-30T11:07:57;1.00;;;1.00;;
10343;SDS011;5217;43.960;10.954;2023-08-30T11:10:26;2.13;;;1.27;;
10343;SDS011;5217;43.960;10.954;2023-08-30T11:12:55;1.85;;;1.20;;
10343;SDS011;5217;43.960;10.954;2023-08-30T11:15:25;2.13;;;1.40;;
10343;SDS011;5217;43.960;10.954;2023-08-30T11:18:02;1.20;;;1.02;;
10343;SDS011;5217;43.960;10.954;2023-08-30T11:20:30;1.50;;;1.35;;
10343;SDS011;5217;43.960;10.954;2023-08-30T11:22:59;1.65;;;1.20;;
10343;SDS011;5217;43.960;10.954;2023-08-30T11:25:30;1.17;;;1.00;;
10343;SDS011;5217;43.960;10.954;2023-08-30T11:28:02;1.38;;;1.10;;
10343;SDS011;5217;43.960;10.954;2023-08-30T11:30:32;1.05;;;1.00;;
10343;SDS011;5217;43.960;10.954;2023-08-30T11:33:01;1.13;;;1.08;;
10343;SDS011;5217;43.960;10.954;2023-08-30T11:35:31;1.23;;;0.98;;
10343;SDS011;5217;43.960;10.954;2023-08-30T11:37:59;2.40;;;1.10;;
10343;SDS011;5217;43.960;10.954;2023-08-30T11:40:28;1.15;;;1.10;;
10343;SDS011;5217;43.960;10.954;2023-08-30T11:42:57;1.95;;;1.50;;
10343;SDS011;5217;43.960;10.954;2023-08-30T11:45:25;1.42;;;1.20;;
10343;SDS011;5217;43.960;10.954;2023-08-30T11:47:55;3.13;;;1.42;;
10343;SDS011;5217;43.960;10.954;2023-08-30T11:50:26;2.58;;;1.30;;
10343;SDS011;5217;43.960;10.954;2023-08-30T11:53:04;1.27;;;1.17;;
10343;SDS011;5217;43.960;10.954;2023-08-30T11:55:33;1.10;;;1.10;;
10343;SDS011;5217;43.960;10.954;2023-08-30T11:58:02;1.25;;;1.15;;
10343;SDS011;5217;43.960;10.954;2023-08-30T12:00:32;2.42;;;1.30;;
10343;SDS011;5217;43.960;10.954;2023-08-30T12:03:03;1.80;;;1.10;;
10343;SDS011;5217;43.960;10.954;2023-08-30T12:05:34;1.38;;;1.10;;
10343;SDS011;5217;43.960;10.954;2023-08-30T12:08:03;0.95;;;0.90;;
10343;SDS011;5217;43.960;10.954;2023-08-30T12:10:32;2.45;;;1.17;;
10343;SDS011;5217;43.960;10.954;2023-08-30T12:13:01;1.45;;;1.10;;
10343;SDS011;5217;43.960;10.954;2023-08-30T12:15:29;1.17;;;1.00;;
10343;SDS011;5217;43.960;10.954;2023-08-30T12:18:07;2.30;;;1.30;;
10343;SDS011;5217;43.960;10.954;2023-08-30T12:20:35;1.42;;;1.17;;
10343;SDS011;5217;43.960;10.954;2023-08-30T12:23:04;2.17;;;1.13;;
10343;SDS011;5217;43.960;10.954;2023-08-30T12:25:33;2.65;;;1.30;;
10343;SDS011;5217;43.960;10.954;2023-08-30T12:28:01;2.40;;;1.20;;
10343;SDS011;5217;43.960;10.954;2023-08-30T12:30:30;2.63;;;1.38;;
10343;SDS011;5217;43.960;10.954;2023-08-30T12:33:00;1.92;;;1.13;;
10343;SDS011;5217;43.960;10.954;2023-08-30T12:35:31;2.83;;;1.33;;
10343;SDS011;5217;43.960;10.954;2023-08-30T12:37:59;4.05;;;1.27;;
10343;SDS011;5217;43.960;10.954;2023-08-30T12:40:28;2.33;;;1.40;;
10343;SDS011;5217;43.960;10.954;2023-08-30T12:42:56;1.73;;;1.38;;
10343;SDS011;5217;43.960;10.954;2023-08-30T12:45:24;2.63;;;1.33;;
10343;SDS011;5217;43.960;10.954;2023-08-30T12:47:53;2.80;;;1.33;;
10343;SDS011;5217;43.960;10.954;2023-08-30T12:50:21;1.48;;;1.30;;
10343;SDS011;5217;43.960;10.954;2023-08-30T12:52:51;2.22;;;1.30;;
10343;SDS011;5217;43.960;10.954;2023-08-30T12:55:20;2.45;;;1.30;;
10343;SDS011;5217;43.960;10.954;2023-08-30T12:57:48;2.35;;;1.13;;
10343;SDS011;5217;43.960;10.954;2023-08-30T13:00:17;2.20;;;1.30;;
10343;SDS011;5217;43.960;10.954;2023-08-30T13:02:46;2.10;;;1.17;;
10343;SDS011;5217;43.960;10.954;2023-08-30T13:05:14;3.55;;;1.33;;
10343;SDS011;5217;43.960;10.954;2023-08-30T13:07:43;3.83;;;1.45;;
10343;SDS011;5217;43.960;10.954;2023-08-30T13:10:13;2.97;;;1.30;;
10343;SDS011;5217;43.960;10.954;2023-08-30T13:12:42;1.90;;;0.95;;
10343;SDS011;5217;43.960;10.954;2023-08-30T13:15:10;1.65;;;1.10;;
10343;SDS011;5217;43.960;10.954;2023-08-30T13:17:39;2.17;;;1.10;;
10343;SDS011;5217;43.960;10.954;2023-08-30T13:20:08;1.02;;;0.90;;
10343;SDS011;5217;43.960;10.954;2023-08-30T13:22:37;1.52;;;0.80;;
10343;SDS011;5217;43.960;10.954;2023-08-30T13:25:06;1.30;;;0.90;;
10343;SDS011;5217;43.960;10.954;2023-08-30T13:27:36;1.52;;;1.10;;
10343;SDS011;5217;43.960;10.954;2023-08-30T13:30:05;2.63;;;0.93;;
10343;SDS011;5217;43.960;10.954;2023-08-30T13:32:34;1.58;;;1.00;;
10343;SDS011;5217;43.960;10.954;2023-08-30T13:35:03;1.90;;;0.85;;
10343;SDS011;5217;43.960;10.954;2023-08-30T13:38:01;2.45;;;1.00;;
10343;SDS011;5217;43.960;10.954;2023-08-30T13:44:51;1.50;;;1.02;;
10343;SDS011;5217;43.960;10.954;2023-08-30T13:47:22;0.77;;;0.77;;
10343;SDS011;5217;43.960;10.954;2023-08-30T13:49:56;2.20;;;0.90;;
10343;SDS011;5217;43.960;10.954;2023-08-30T13:52:28;1.58;;;0.90;;
10343;SDS011;5217;43.960;10.954;2023-08-30T13:55:00;2.03;;;1.10;;
10343;SDS011;5217;43.960;10.954;2023-08-30T13:57:50;1.63;;;1.00;;
10343;SDS011;5217;43.960;10.954;2023-08-30T14:00:22;1.00;;;0.90;;
10343;SDS011;5217;43.960;10.954;2023-08-30T14:02:51;1.20;;;0.98;;
10343;SDS011;5217;43.960;10.954;2023-08-30T14:05:19;1.38;;;0.98;;
10343;SDS011;5217;43.960;10.954;2023-08-30T14:07:48;2.03;;;1.10;;
10343;SDS011;5217;43.960;10.954;2023-08-30T14:10:17;1.50;;;1.00;;
10343;SDS011;5217;43.960;10.954;2023-08-30T14:12:47;2.58;;;0.90;;
10343;SDS011;5217;43.960;10.954;2023-08-30T14:15:15;2.20;;;1.20;;
10343;SDS011;5217;43.960;10.954;2023-08-30T14:17:46;1.23;;;0.82;;
10343;SDS011;5217;43.960;10.954;2023-08-30T14:20:15;2.10;;;1.00;;
10343;SDS011;5217;43.960;10.954;2023-08-30T14:22:43;2.78;;;1.00;;
10343;SDS011;5217;43.960;10.954;2023-08-30T14:25:11;1.60;;;1.00;;
10343;SDS011;5217;43.960;10.954;2023-08-30T14:27:40;3.05;;;1.35;;
10343;SDS011;5217;43.960;10.954;2023-08-30T14:30:09;3.08;;;1.40;;
10343;SDS011;5217;43.960;10.954;2023-08-30T14:32:38;5.00;;;1.60;;
10343;SDS011;5217;43.960;10.954;2023-08-30T14:35:08;2.65;;;1.50;;
10343;SDS011;5217;43.960;10.954;2023-08-30T14:37:37;3.60;;;1.67;;
10343;SDS011;5217;43.960;10.954;2023-08-30T14:40:06;4.00;;;1.42;;
10343;SDS011;5217;43.960;10.954;2023-08-30T14:42:35;2.47;;;1.20;;
10343;SDS011;5217;43.960;10.954;2023-08-30T14:45:04;6.72;;;1.67;;
10343;SDS011;5217;43.960;10.954;2023-08-30T14:47:34;3.40;;;1.70;;
10343;SDS011;5217;43.960;10.954;2023-08-30T14:50:02;2.53;;;1.40;;
10343;SDS011;5217;43.960;10.954;2023-08-30T14:52:33;3.45;;;1.38;;
10343;SDS011;5217;43.960;10.954;2023-08-30T14:55:01;2.90;;;1.40;;
10343;SDS011;5217;43.960;10.954;2023-08-30T14:57:30;4.22;;;1.70;;
10343;SDS011;5217;43.960;10.954;2023-08-30T14:59:58;2.80;;;1.30;;
10343;SDS011;5217;43.960;10.954;2023-08-30T15:02:27;1.95;;;1.30;;
10343;SDS011;5217;43.960;10.954;2023-08-30T15:04:57;1.95;;;1.23;;
10343;SDS011;5217;43.960;10.954;2023-08-30T15:07:25;2.28;;;1.40;;